RJTQ(METAR)
10/16 16:00
RJTQ 160700Z 05015KT 9999 FEW020 SCT030 BKN040 21/19 Q1021 RMK
A3015=
戻る
トップページへ戻る
IMOC Co,.Ltd.